Time;durP1;ratioP1;P1;durP2;ratioP2;P2;SDS_P1;SDS_P2;PMS_P1;PMS_P2;Temp;Humidity;BMP_temperature;BMP_pressure;BME280_temperature;BME280_humidity;BME280_pressure;Samples;Min_cycle;Max_cycle;Signal;HPM_P1;HPM_P2
2023/10/25 00:00:37;;;;;;;37.55;15.35;;;;;;;;;;10483981;28;20064;-85
2023/10/25 00:05:38;;;;;;;40.30;16.20;;;;;;;;;;10481997;28;20035;-82
2023/10/25 00:10:39;;;;;;;36.88;15.18;;;;;;;;;;10481758;28;20119;-83
2023/10/25 00:15:40;;;;;;;49.58;20.90;;;;;;;;;;10466073;28;20078;-82
2023/10/25 00:20:41;;;;;;;46.30;20.05;;;;;;;;;;10482019;28;20037;-85
2023/10/25 00:25:42;;;;;;;47.55;22.00;;;;;;;;;;10489300;28;20082;-83
2023/10/25 00:30:47;;;;;;;37.67;17.83;;;;;;;;;;10490927;28;20042;-82
2023/10/25 00:35:48;;;;;;;38.33;20.30;;;;;;;;;;10489390;28;20051;-83
2023/10/25 00:40:49;;;;;;;43.22;24.27;;;;;;;;;;10502207;28;20021;-82
2023/10/25 00:46:02;;;;;;;48.22;25.05;;;;;;;;;;10468080;28;20064;-82
2023/10/25 00:51:03;;;;;;;28.40;14.40;;;;;;;;;;10489114;28;20483;-85
2023/10/25 00:56:05;;;;;;;36.85;18.13;;;;;;;;;;10490117;28;20033;-82
2023/10/25 01:01:06;;;;;;;40.80;18.13;;;;;;;;;;10487727;28;20032;-82
2023/10/25 01:06:07;;;;;;;39.97;20.40;;;;;;;;;;10489317;28;20040;-81
2023/10/25 01:11:08;;;;;;;38.67;19.83;;;;;;;;;;10488299;28;20029;-81
2023/10/25 01:16:09;;;;;;;36.05;17.65;;;;;;;;;;10489379;28;20514;-80
2023/10/25 01:21:10;;;;;;;44.47;21.10;;;;;;;;;;10488454;28;20017;-81
2023/10/25 01:26:11;;;;;;;30.05;17.02;;;;;;;;;;10486931;28;20061;-81
2023/10/25 01:31:12;;;;;;;27.85;15.98;;;;;;;;;;10488863;28;20500;-82
2023/10/25 01:36:13;;;;;;;31.50;15.68;;;;;;;;;;10487250;28;20059;-82
2023/10/25 01:41:16;;;;;;;30.55;16.55;;;;;;;;;;10487993;28;20039;-82
2023/10/25 01:46:17;;;;;;;28.23;14.98;;;;;;;;;;10488306;28;20464;-81
2023/10/25 01:51:18;;;;;;;47.78;21.33;;;;;;;;;;10488073;28;20064;-82
2023/10/25 01:56:19;;;;;;;31.38;15.65;;;;;;;;;;10487824;28;20050;-82
2023/10/25 02:01:20;;;;;;;34.03;16.42;;;;;;;;;;10486356;28;20043;-85
2023/10/25 02:06:21;;;;;;;33.10;16.77;;;;;;;;;;10486868;28;20036;-81
2023/10/25 02:11:29;;;;;;;30.10;16.63;;;;;;;;;;10487622;28;20024;-82
2023/10/25 02:16:30;;;;;;;34.92;18.48;;;;;;;;;;10487113;28;20045;-85
2023/10/25 02:21:37;;;;;;;26.45;17.20;;;;;;;;;;10485428;28;20385;-84
2023/10/25 02:26:38;;;;;;;52.45;26.80;;;;;;;;;;10484830;28;20056;-83
2023/10/25 02:31:39;;;;;;;49.00;24.75;;;;;;;;;;10486168;28;20833;-82
2023/10/25 02:36:40;;;;;;;35.17;19.48;;;;;;;;;;10485863;28;20032;-82
2023/10/25 02:41:41;;;;;;;44.08;22.23;;;;;;;;;;10485704;28;20036;-81
2023/10/25 02:46:42;;;;;;;44.50;23.08;;;;;;;;;;10484793;28;20365;-82
2023/10/25 02:51:43;;;;;;;36.10;19.38;;;;;;;;;;10485401;28;20032;-81
2023/10/25 02:56:44;;;;;;;48.70;26.75;;;;;;;;;;10486140;28;20059;-83
2023/10/25 03:01:52;;;;;;;39.45;21.58;;;;;;;;;;10484653;28;20399;-82
2023/10/25 03:06:53;;;;;;;35.67;19.90;;;;;;;;;;10483029;28;20037;-81
2023/10/25 03:11:54;;;;;;;28.60;17.65;;;;;;;;;;10484635;28;20396;-82
2023/10/25 03:17:01;;;;;;;34.30;19.02;;;;;;;;;;10484142;28;20036;-82
2023/10/25 03:22:03;;;;;;;37.65;19.65;;;;;;;;;;10483500;28;20024;-85
2023/10/25 03:27:04;;;;;;;35.83;19.23;;;;;;;;;;10481172;28;20048;-82
2023/10/25 03:32:05;;;;;;;29.27;17.83;;;;;;;;;;10483545;28;20533;-82
2023/10/25 03:37:06;;;;;;;27.02;15.48;;;;;;;;;;10483720;28;20043;-80
2023/10/25 03:42:07;;;;;;;34.03;17.20;;;;;;;;;;10484214;28;20734;-81
2023/10/25 03:47:08;;;;;;;26.30;15.70;;;;;;;;;;10484312;28;20576;-82
2023/10/25 03:52:09;;;;;;;33.78;17.70;;;;;;;;;;10484287;28;20040;-84
2023/10/25 03:57:10;;;;;;;35.70;18.17;;;;;;;;;;10486552;28;20043;-83
2023/10/25 04:02:11;;;;;;;29.45;17.17;;;;;;;;;;10491721;28;20055;-82
2023/10/25 04:07:12;;;;;;;25.00;16.20;;;;;;;;;;10491212;28;20032;-85
2023/10/25 04:12:13;;;;;;;30.35;16.52;;;;;;;;;;10488750;28;20137;-86
2023/10/25 04:17:14;;;;;;;28.40;17.15;;;;;;;;;;10477453;28;20077;-84
2023/10/25 04:22:15;;;;;;;31.27;18.20;;;;;;;;;;10486932;28;20491;-82
2023/10/25 04:27:16;;;;;;;31.45;17.90;;;;;;;;;;10487740;28;20082;-81
2023/10/25 04:32:17;;;;;;;39.22;23.00;;;;;;;;;;10491489;28;20029;-82
2023/10/25 04:37:18;;;;;;;34.67;21.17;;;;;;;;;;10492153;28;20037;-82
2023/10/25 04:42:19;;;;;;;36.78;21.98;;;;;;;;;;10479168;28;20395;-81
2023/10/25 04:47:20;;;;;;;40.33;21.63;;;;;;;;;;10477770;28;20029;-83
2023/10/25 04:52:21;;;;;;;49.55;26.77;;;;;;;;;;10484332;28;20067;-82
2023/10/25 04:57:22;;;;;;;57.22;28.27;;;;;;;;;;10489366;28;20043;-85
2023/10/25 05:02:24;;;;;;;53.17;27.88;;;;;;;;;;10471543;28;20522;-82
2023/10/25 05:07:25;;;;;;;66.93;30.90;;;;;;;;;;10489204;28;20024;-81
2023/10/25 05:12:32;;;;;;;65.53;34.05;;;;;;;;;;10488745;28;20498;-82
2023/10/25 05:17:33;;;;;;;92.65;37.78;;;;;;;;;;10488034;28;20028;-82
2023/10/25 05:22:35;;;;;;;93.82;40.72;;;;;;;;;;10475003;28;20029;-81
2023/10/25 05:27:37;;;;;;;73.43;33.17;;;;;;;;;;10486524;28;20450;-81
2023/10/25 05:32:39;;;;;;;77.25;38.40;;;;;;;;;;10487120;28;20067;-81
2023/10/25 05:37:40;;;;;;;70.13;32.55;;;;;;;;;;10488423;28;20542;-84
2023/10/25 05:42:48;;;;;;;82.22;35.95;;;;;;;;;;10487920;28;20048;-81
2023/10/25 05:47:49;;;;;;;93.35;40.25;;;;;;;;;;10486191;28;20040;-81
2023/10/25 05:52:50;;;;;;;63.25;31.98;;;;;;;;;;10475896;28;20045;-82
2023/10/25 05:57:51;;;;;;;73.50;35.60;;;;;;;;;;10488090;28;20032;-81
2023/10/25 06:02:56;;;;;;;56.95;29.10;;;;;;;;;;10487718;28;20734;-81
2023/10/25 06:08:04;;;;;;;50.85;26.80;;;;;;;;;;10475005;28;20082;-82
2023/10/25 06:13:05;;;;;;;49.15;26.83;;;;;;;;;;10487149;28;20068;-81
2023/10/25 06:18:07;;;;;;;51.70;27.73;;;;;;;;;;10484705;28;20020;-81
2023/10/25 06:23:08;;;;;;;46.90;26.17;;;;;;;;;;10469274;28;20040;-85
2023/10/25 06:28:10;;;;;;;53.40;30.83;;;;;;;;;;10478619;28;20563;-80
2023/10/25 06:33:11;;;;;;;44.83;26.55;;;;;;;;;;10485369;28;20056;-82
2023/10/25 06:38:12;;;;;;;36.40;22.58;;;;;;;;;;10485455;28;20037;-85
2023/10/25 06:43:13;;;;;;;30.45;19.63;;;;;;;;;;10485288;28;20025;-81
2023/10/25 06:48:14;;;;;;;31.35;19.42;;;;;;;;;;10480218;28;20024;-83
2023/10/25 06:53:15;;;;;;;37.00;22.65;;;;;;;;;;10472652;28;20094;-81
2023/10/25 06:58:16;;;;;;;36.75;21.73;;;;;;;;;;10484626;28;20126;-83
2023/10/25 07:03:20;;;;;;;51.88;29.88;;;;;;;;;;10484473;28;20040;-81
2023/10/25 07:08:22;;;;;;;52.42;27.60;;;;;;;;;;10484889;28;20081;-87
2023/10/25 07:13:30;;;;;;;53.25;27.40;;;;;;;;;;10483460;28;20040;-81
2023/10/25 07:18:31;;;;;;;56.05;30.00;;;;;;;;;;10478731;28;20542;-81
2023/10/25 07:23:32;;;;;;;60.80;30.73;;;;;;;;;;10478587;28;20048;-82
2023/10/25 07:28:33;;;;;;;65.97;33.53;;;;;;;;;;10477487;28;20044;-82
2023/10/25 07:33:34;;;;;;;80.03;38.15;;;;;;;;;;10483741;28;20041;-85
2023/10/25 07:38:36;;;;;;;60.55;30.85;;;;;;;;;;10483637;28;20048;-83
2023/10/25 07:43:37;;;;;;;53.97;27.63;;;;;;;;;;10471064;28;20040;-81
2023/10/25 07:48:38;;;;;;;55.38;27.77;;;;;;;;;;10476669;28;20048;-86
2023/10/25 07:53:39;;;;;;;48.30;23.17;;;;;;;;;;10482293;28;20055;-84
2023/10/25 07:58:40;;;;;;;47.67;23.30;;;;;;;;;;10484690;28;20044;-81
2023/10/25 08:03:41;;;;;;;47.28;27.42;;;;;;;;;;10483543;28;20119;-81
2023/10/25 08:08:42;;;;;;;38.53;21.90;;;;;;;;;;10483492;28;20484;-80
2023/10/25 08:13:44;;;;;;;43.08;22.65;;;;;;;;;;10483111;28;20036;-81
2023/10/25 08:18:45;;;;;;;44.22;23.67;;;;;;;;;;10477615;28;20044;-82
2023/10/25 08:23:46;;;;;;;54.50;25.25;;;;;;;;;;10481844;28;20494;-80
2023/10/25 08:28:47;;;;;;;59.67;29.23;;;;;;;;;;10482431;28;20091;-83
2023/10/25 08:33:48;;;;;;;51.72;25.92;;;;;;;;;;10467886;28;20052;-81
2023/10/25 08:38:49;;;;;;;51.58;26.88;;;;;;;;;;10468578;28;20468;-84
2023/10/25 08:43:52;;;;;;;52.13;27.10;;;;;;;;;;10485584;28;20033;-83
2023/10/25 08:48:55;;;;;;;46.63;25.45;;;;;;;;;;10491178;28;20032;-82
2023/10/25 08:53:59;;;;;;;46.33;24.75;;;;;;;;;;10489973;28;20044;-83
2023/10/25 08:59:00;;;;;;;43.35;23.88;;;;;;;;;;10488973;28;20032;-83
2023/10/25 09:04:09;;;;;;;44.65;23.20;;;;;;;;;;10489716;28;20093;-82
2023/10/25 09:09:10;;;;;;;42.13;21.90;;;;;;;;;;10489408;28;20032;-82
2023/10/25 09:14:13;;;;;;;47.92;24.70;;;;;;;;;;10488749;28;20424;-86
2023/10/25 09:19:19;;;;;;;43.10;22.10;;;;;;;;;;10489883;28;20049;-81
2023/10/25 09:24:20;;;;;;;;;;;;;;;;;;10488720;28;20570;-82
2023/10/25 09:29:25;;;;;;;42.92;24.25;;;;;;;;;;10488568;28;19966;-86
2023/10/25 09:34:27;;;;;;;46.53;25.33;;;;;;;;;;10488809;28;20094;-82
2023/10/25 09:39:28;;;;;;;50.55;25.25;;;;;;;;;;10488065;28;20032;-83
2023/10/25 09:44:37;;;;;;;44.03;26.13;;;;;;;;;;10489046;28;20229;-80
2023/10/25 09:49:43;;;;;;;50.75;26.63;;;;;;;;;;10486582;28;20028;-85
2023/10/25 09:54:48;;;;;;;32.10;18.50;;;;;;;;;;10488285;28;20571;-81
2023/10/25 09:59:53;;;;;;;35.37;19.20;;;;;;;;;;10488003;28;20236;-82
2023/10/25 10:05:08;;;;;;;32.20;18.45;;;;;;;;;;10487929;28;20661;-84
2023/10/25 10:10:13;;;;;;;29.38;18.30;;;;;;;;;;10501707;28;20037;-84
2023/10/25 10:15:14;;;;;;;32.83;18.97;;;;;;;;;;10487312;28;20036;-84
2023/10/25 10:20:23;;;;;;;25.52;16.08;;;;;;;;;;10474201;28;20051;-82
2023/10/25 10:31:29;;;;;;;22.98;16.02;;;;;;;;;;10473997;28;20045;-82
2023/10/25 10:36:31;;;;;;;34.60;21.92;;;;;;;;;;10467672;28;20097;-84
2023/10/25 10:41:32;;;;;;;30.65;19.05;;;;;;;;;;10484515;28;20028;-85
2023/10/25 10:46:38;;;;;;;19.95;14.23;;;;;;;;;;10485711;28;20066;-83
2023/10/25 10:51:40;;;;;;;17.38;13.07;;;;;;;;;;10485156;28;20033;-82
2023/10/25 10:56:41;;;;;;;19.13;11.55;;;;;;;;;;10456884;28;20575;-82
2023/10/25 11:01:46;;;;;;;16.15;11.38;;;;;;;;;;10469160;28;20029;-82
2023/10/25 11:06:47;;;;;;;24.30;17.15;;;;;;;;;;10470550;28;20032;-82
2023/10/25 11:11:48;;;;;;;24.27;14.38;;;;;;;;;;10484948;28;20099;-83
2023/10/25 11:16:49;;;;;;;59.67;32.05;;;;;;;;;;10485659;28;20426;-81
2023/10/25 11:21:50;;;;;;;30.00;17.25;;;;;;;;;;10484898;28;20043;-83
2023/10/25 11:26:54;;;;;;;22.52;15.10;;;;;;;;;;10484202;28;20081;-83
2023/10/25 11:32:00;;;;;;;26.27;16.15;;;;;;;;;;10470549;28;20404;-81
2023/10/25 11:37:02;;;;;;;26.42;16.02;;;;;;;;;;10485363;28;20066;-82
2023/10/25 11:42:05;;;;;;;23.20;14.90;;;;;;;;;;10485490;28;20020;-84
2023/10/25 11:47:06;;;;;;;24.85;15.32;;;;;;;;;;10485525;28;20476;-82
2023/10/25 11:52:07;;;;;;;23.27;14.00;;;;;;;;;;10483468;28;20028;-83
2023/10/25 11:57:08;;;;;;;16.75;11.23;;;;;;;;;;10483837;28;20135;-84
2023/10/25 12:02:09;;;;;;;16.70;11.43;;;;;;;;;;10484703;28;20031;-81
2023/10/25 12:07:10;;;;;;;27.05;15.32;;;;;;;;;;10497473;28;20040;-85
2023/10/25 12:12:11;;;;;;;29.20;18.33;;;;;;;;;;10491835;28;20464;-85
2023/10/25 12:17:12;;;;;;;23.52;14.10;;;;;;;;;;10486056;28;20043;-83
2023/10/25 12:22:14;;;;;;;27.85;15.20;;;;;;;;;;10506124;28;20025;-79
2023/10/25 12:27:15;;;;;;;19.33;11.52;;;;;;;;;;10491352;28;20115;-85
2023/10/25 12:32:21;;;;;;;11.98;7.97;;;;;;;;;;10490007;28;20060;-82
2023/10/25 12:37:29;;;;;;;14.82;9.93;;;;;;;;;;10485787;28;20036;-93
2023/10/25 12:42:30;;;;;;;9.68;6.15;;;;;;;;;;10485790;28;20438;-82
2023/10/25 12:47:31;;;;;;;8.85;5.95;;;;;;;;;;10504536;22;20068;-86
2023/10/25 12:52:32;;;;;;;6.05;4.40;;;;;;;;;;10478196;28;20044;-84
2023/10/25 12:57:33;;;;;;;3.55;2.70;;;;;;;;;;10487975;28;20047;-81
2023/10/25 13:02:35;;;;;;;4.93;3.17;;;;;;;;;;10500624;28;20032;-84
2023/10/25 13:07:36;;;;;;;7.32;3.90;;;;;;;;;;10478676;28;20048;-82
2023/10/25 13:12:37;;;;;;;6.70;4.43;;;;;;;;;;10486817;28;20164;-83
2023/10/25 13:17:38;;;;;;;5.50;3.05;;;;;;;;;;10475395;28;20395;-85
2023/10/25 13:22:40;;;;;;;5.95;3.30;;;;;;;;;;10489086;28;20043;-84
2023/10/25 13:27:41;;;;;;;4.40;2.78;;;;;;;;;;10489197;28;20103;-83
2023/10/25 13:32:42;;;;;;;6.50;3.35;;;;;;;;;;10484259;28;20095;-83
2023/10/25 13:37:43;;;;;;;6.97;3.78;;;;;;;;;;10468590;28;20073;-83
2023/10/25 13:42:52;;;;;;;4.88;3.78;;;;;;;;;;10487836;28;20617;-82
2023/10/25 13:48:06;;;;;;;9.35;4.88;;;;;;;;;;10487782;28;20052;-83
2023/10/25 13:53:07;;;;;;;12.43;6.45;;;;;;;;;;10477603;28;20522;-85
2023/10/25 13:58:12;;;;;;;12.90;7.40;;;;;;;;;;10487624;28;20040;-86
2023/10/25 14:03:13;;;;;;;9.68;5.90;;;;;;;;;;10484255;28;20017;-83
2023/10/25 14:08:16;;;;;;;9.98;6.00;;;;;;;;;;10478834;28;20064;-83
2023/10/25 14:13:24;;;;;;;9.18;5.75;;;;;;;;;;10480262;28;20485;-83
2023/10/25 14:18:25;;;;;;;13.02;7.10;;;;;;;;;;10468987;28;20040;-81
2023/10/25 14:23:26;;;;;;;22.92;13.20;;;;;;;;;;10486688;28;20032;-83
2023/10/25 14:28:27;;;;;;;21.02;12.95;;;;;;;;;;10486105;28;20427;-85
2023/10/25 14:33:29;;;;;;;19.05;12.88;;;;;;;;;;10466022;28;20029;-84
2023/10/25 14:38:30;;;;;;;18.15;9.70;;;;;;;;;;10481758;28;20035;-83
2023/10/25 14:43:31;;;;;;;14.93;8.75;;;;;;;;;;10483065;28;20043;-84
2023/10/25 14:48:32;;;;;;;21.77;13.02;;;;;;;;;;10470009;28;20087;-84
2023/10/25 14:53:33;;;;;;;27.15;16.15;;;;;;;;;;10446228;28;20540;-83
2023/10/25 14:58:34;;;;;;;24.98;13.65;;;;;;;;;;10497201;22;20121;-82
2023/10/25 15:03:35;;;;;;;16.70;11.02;;;;;;;;;;10483873;28;20032;-84
2023/10/25 15:08:36;;;;;;;19.92;10.45;;;;;;;;;;10482777;28;20039;-81
2023/10/25 15:13:37;;;;;;;20.50;9.50;;;;;;;;;;10481577;28;20044;-82
2023/10/25 15:18:38;;;;;;;19.73;10.40;;;;;;;;;;10484204;28;20028;-82
2023/10/25 15:23:39;;;;;;;25.67;13.20;;;;;;;;;;10484567;28;20035;-84
2023/10/25 15:28:40;;;;;;;26.63;15.25;;;;;;;;;;10484201;28;20387;-82
2023/10/25 15:33:42;;;;;;;44.28;22.70;;;;;;;;;;10478637;28;20044;-82
2023/10/25 15:38:43;;;;;;;42.10;24.33;;;;;;;;;;10481393;28;20093;-82
2023/10/25 15:43:51;;;;;;;55.38;34.35;;;;;;;;;;10483777;28;20032;-82
2023/10/25 15:48:52;;;;;;;38.80;23.75;;;;;;;;;;10484225;28;20137;-84
2023/10/25 15:53:53;;;;;;;117.18;74.70;;;;;;;;;;10477567;28;20123;-85
2023/10/25 15:58:54;;;;;;;113.13;76.60;;;;;;;;;;10488232;28;20068;-82
2023/10/25 16:03:56;;;;;;;53.33;35.05;;;;;;;;;;10491748;28;20044;-82
2023/10/25 16:08:57;;;;;;;38.53;23.92;;;;;;;;;;10489936;28;20028;-82
2023/10/25 16:13:58;;;;;;;34.75;19.15;;;;;;;;;;10470652;28;20037;-81
2023/10/25 16:19:06;;;;;;;25.42;16.02;;;;;;;;;;10492696;28;20085;-82
2023/10/25 16:24:07;;;;;;;19.52;12.68;;;;;;;;;;10493093;28;20081;-82
2023/10/25 16:29:09;;;;;;;22.55;12.85;;;;;;;;;;10492844;28;20070;-82
2023/10/25 16:34:14;;;;;;;40.13;23.60;;;;;;;;;;10490071;28;20072;-81
2023/10/25 16:39:15;;;;;;;28.08;16.13;;;;;;;;;;10514413;28;20028;-82
2023/10/25 16:44:16;;;;;;;37.05;21.25;;;;;;;;;;10518722;28;20865;-84
2023/10/25 16:49:17;;;;;;;39.38;23.90;;;;;;;;;;10528754;28;20032;-87
2023/10/25 16:54:18;;;;;;;136.38;82.00;;;;;;;;;;10514173;28;20051;-82
2023/10/25 16:59:19;;;;;;;139.23;85.63;;;;;;;;;;10530380;28;20020;-84
2023/10/25 17:04:20;;;;;;;103.15;60.35;;;;;;;;;;10531511;28;20028;-83
2023/10/25 17:09:22;;;;;;;48.03;28.88;;;;;;;;;;10530964;28;20414;-83
2023/10/25 17:14:23;;;;;;;74.00;44.33;;;;;;;;;;10525880;28;20123;-84
2023/10/25 17:19:24;;;;;;;58.15;34.45;;;;;;;;;;10513174;28;20032;-83
2023/10/25 17:24:25;;;;;;;50.88;30.38;;;;;;;;;;10530771;28;20036;-84
2023/10/25 17:29:26;;;;;;;42.08;24.13;;;;;;;;;;10529935;28;20434;-84
2023/10/25 17:34:27;;;;;;;30.55;19.60;;;;;;;;;;10527650;28;20488;-84
2023/10/25 17:39:28;;;;;;;36.70;22.58;;;;;;;;;;10526892;28;20041;-84
2023/10/25 17:44:29;;;;;;;39.95;24.83;;;;;;;;;;10525864;28;20036;-87
2023/10/25 17:49:31;;;;;;;43.67;27.85;;;;;;;;;;10527696;28;20049;-85
2023/10/25 17:54:32;;;;;;;46.00;27.92;;;;;;;;;;10528875;28;20060;-82
2023/10/25 17:59:33;;;;;;;53.47;31.15;;;;;;;;;;10528588;28;20107;-82
2023/10/25 18:04:34;;;;;;;71.53;43.55;;;;;;;;;;10528428;28;20032;-80
2023/10/25 18:09:35;;;;;;;146.40;91.45;;;;;;;;;;10522441;28;20036;-81
2023/10/25 18:14:37;;;;;;;101.28;61.63;;;;;;;;;;10542759;22;20071;-80
2023/10/25 18:19:38;;;;;;;95.35;59.25;;;;;;;;;;10562017;28;20630;-81
2023/10/25 18:24:39;;;;;;;101.68;60.15;;;;;;;;;;10564577;28;20034;-81
2023/10/25 18:29:42;;;;;;;77.95;46.03;;;;;;;;;;10570903;28;20503;-80
2023/10/25 18:34:43;;;;;;;61.67;38.50;;;;;;;;;;10567031;28;20483;-81
2023/10/25 18:39:44;;;;;;;110.22;57.40;;;;;;;;;;10568930;28;20414;-80
2023/10/25 18:44:45;;;;;;;75.97;44.13;;;;;;;;;;10551719;28;20040;-80
2023/10/25 18:49:46;;;;;;;79.05;47.00;;;;;;;;;;10544155;28;20065;-79
2023/10/25 18:54:47;;;;;;;66.85;41.53;;;;;;;;;;10560211;28;20486;-79
2023/10/25 18:59:54;;;;;;;77.97;46.75;;;;;;;;;;10555200;28;20040;-80
2023/10/25 19:04:58;;;;;;;65.90;38.22;;;;;;;;;;10565080;28;20063;-81
2023/10/25 19:09:59;;;;;;;69.55;38.15;;;;;;;;;;10476592;22;20611;-80
2023/10/25 19:15:00;;;;;;;64.82;37.65;;;;;;;;;;10441957;28;20040;-82
2023/10/25 19:20:01;;;;;;;65.53;40.28;;;;;;;;;;10453750;28;20047;-82
2023/10/25 19:25:02;;;;;;;82.22;48.15;;;;;;;;;;10453462;28;20507;-82
2023/10/25 19:30:04;;;;;;;76.60;45.03;;;;;;;;;;10445274;28;20028;-82
2023/10/25 19:35:05;;;;;;;54.60;32.50;;;;;;;;;;10416501;28;20037;-81
2023/10/25 19:40:06;;;;;;;86.60;46.45;;;;;;;;;;10405449;28;20033;-80
2023/10/25 19:45:10;;;;;;;63.75;39.20;;;;;;;;;;10399404;28;20053;-80
2023/10/25 19:50:13;;;;;;;68.88;40.55;;;;;;;;;;10404271;28;20127;-80
2023/10/25 19:55:14;;;;;;;67.07;38.75;;;;;;;;;;10401812;28;20040;-80
2023/10/25 20:00:15;;;;;;;59.25;34.13;;;;;;;;;;10401401;28;20082;-79
2023/10/25 20:05:16;;;;;;;67.75;38.25;;;;;;;;;;10416287;28;20057;-80
2023/10/25 20:10:18;;;;;;;52.03;33.63;;;;;;;;;;10434939;28;20052;-80
2023/10/25 20:15:19;;;;;;;54.83;31.70;;;;;;;;;;10443248;28;20044;-80
2023/10/25 20:20:20;;;;;;;58.97;34.10;;;;;;;;;;10442439;28;20037;-79
2023/10/25 20:25:21;;;;;;;61.92;38.03;;;;;;;;;;10442736;28;20151;-79
2023/10/25 20:30:22;;;;;;;58.83;33.63;;;;;;;;;;10424129;28;20028;-80
2023/10/25 20:35:23;;;;;;;57.07;30.67;;;;;;;;;;10442711;28;20056;-80
2023/10/25 20:40:24;;;;;;;58.97;34.70;;;;;;;;;;10427713;28;20035;-79
2023/10/25 20:45:25;;;;;;;69.75;36.88;;;;;;;;;;10450373;28;20530;-79
2023/10/25 20:50:26;;;;;;;54.47;30.13;;;;;;;;;;10449450;28;20476;-80
2023/10/25 20:55:27;;;;;;;49.25;28.70;;;;;;;;;;10449600;28;20102;-80
2023/10/25 21:00:28;;;;;;;57.17;31.97;;;;;;;;;;10449177;28;20112;-80
2023/10/25 21:05:29;;;;;;;54.72;33.33;;;;;;;;;;10447945;28;20396;-81
2023/10/25 21:10:30;;;;;;;73.95;42.05;;;;;;;;;;10446735;28;20053;-78
2023/10/25 21:15:35;;;;;;;87.38;50.65;;;;;;;;;;10447774;28;20080;-80
2023/10/25 21:20:36;;;;;;;92.55;52.13;;;;;;;;;;10448250;28;20037;-80
2023/10/25 21:25:37;;;;;;;87.32;47.38;;;;;;;;;;10448363;28;20032;-80
2023/10/25 21:30:38;;;;;;;93.60;50.67;;;;;;;;;;10448406;28;20112;-80
2023/10/25 21:35:39;;;;;;;75.60;42.30;;;;;;;;;;10429520;28;20040;-79
2023/10/25 21:40:47;;;;;;;66.78;35.83;;;;;;;;;;10448492;28;20037;-79
2023/10/25 21:45:55;;;;;;;61.30;34.83;;;;;;;;;;10448781;28;20732;-79
2023/10/25 21:51:06;;;;;;;77.63;40.10;;;;;;;;;;10467766;22;20416;-81
2023/10/25 21:56:08;;;;;;;63.80;36.23;;;;;;;;;;10487220;28;20054;-79
2023/10/25 22:01:09;;;;;;;63.67;37.93;;;;;;;;;;10487677;28;20036;-79
2023/10/25 22:06:10;;;;;;;53.42;32.80;;;;;;;;;;10485068;28;20032;-79
2023/10/25 22:11:11;;;;;;;69.93;40.35;;;;;;;;;;10488353;28;20509;-79
2023/10/25 22:16:12;;;;;;;58.00;35.20;;;;;;;;;;10487336;28;20460;-79
2023/10/25 22:21:20;;;;;;;79.88;43.42;;;;;;;;;;10481082;28;20520;-79
2023/10/25 22:26:21;;;;;;;62.47;36.42;;;;;;;;;;10480876;28;20680;-79
2023/10/25 22:31:22;;;;;;;62.55;38.83;;;;;;;;;;10487424;28;20086;-79
2023/10/25 22:36:23;;;;;;;64.80;38.20;;;;;;;;;;10499284;22;20112;-81
2023/10/25 22:41:24;;;;;;;55.67;34.25;;;;;;;;;;10486448;28;20042;-80
2023/10/25 22:46:25;;;;;;;66.57;37.13;;;;;;;;;;10485569;28;20074;-80
2023/10/25 22:51:27;;;;;;;60.97;33.47;;;;;;;;;;10484760;28;20090;-81
2023/10/25 22:56:28;;;;;;;61.67;36.40;;;;;;;;;;10486118;28;20032;-81
2023/10/25 23:01:29;;;;;;;57.40;35.80;;;;;;;;;;10485118;28;20047;-79
2023/10/25 23:06:33;;;;;;;50.60;30.73;;;;;;;;;;10484979;28;20111;-80
2023/10/25 23:11:35;;;;;;;57.65;33.90;;;;;;;;;;10485591;28;20035;-79
2023/10/25 23:16:36;;;;;;;61.08;33.28;;;;;;;;;;10482569;28;20038;-80
2023/10/25 23:21:37;;;;;;;60.90;35.33;;;;;;;;;;10482443;28;20444;-79
2023/10/25 23:26:38;;;;;;;61.58;34.15;;;;;;;;;;10485538;28;20476;-80
2023/10/25 23:31:39;;;;;;;58.75;34.38;;;;;;;;;;10471497;28;20048;-81
2023/10/25 23:36:40;;;;;;;56.33;34.05;;;;;;;;;;10478995;28;20052;-80
2023/10/25 23:41:41;;;;;;;54.83;32.38;;;;;;;;;;10484491;28;20051;-80
2023/10/25 23:46:42;;;;;;;43.15;25.70;;;;;;;;;;10484913;28;20036;-81
2023/10/25 23:51:43;;;;;;;45.22;27.90;;;;;;;;;;10484091;28;20750;-81
2023/10/25 23:56:44;;;;;;;45.40;26.58;;;;;;;;;;10484845;28;20075;-79
